createdAt,value
2023-05-01T00:00:06.376Z,18.96
2023-05-01T00:02:34.759Z,18.87
2023-05-01T00:05:03.251Z,18.78
2023-05-01T00:07:31.960Z,18.52
2023-05-01T00:10:00.377Z,18.53
2023-05-01T00:12:28.784Z,18.10
2023-05-01T00:14:58.424Z,18.56
2023-05-01T00:17:27.190Z,18.44
2023-05-01T00:19:55.838Z,18.48
2023-05-01T00:22:24.373Z,18.18
2023-05-01T00:24:52.665Z,18.27
2023-05-01T00:27:20.978Z,18.33
2023-05-01T00:29:49.548Z,18.24
2023-05-01T00:32:19.678Z,18.08
2023-05-01T00:34:48.499Z,17.76
2023-05-01T00:37:17.540Z,18.42
2023-05-01T00:39:45.863Z,18.40
2023-05-01T00:42:14.114Z,18.68
2023-05-01T00:44:42.423Z,18.56
2023-05-01T00:47:10.653Z,18.42
2023-05-01T00:49:42.850Z,18.80
2023-05-01T00:52:11.412Z,18.65
2023-05-01T00:54:40.738Z,18.77
2023-05-01T00:57:09.566Z,18.91
2023-05-01T00:59:39.396Z,18.72
2023-05-01T01:02:07.826Z,18.70
2023-05-01T01:04:36.077Z,18.03
2023-05-01T01:07:11.578Z,18.21
2023-05-01T01:09:45.291Z,18.39
2023-05-01T01:12:20.465Z,18.55
2023-05-01T01:14:51.990Z,18.28
2023-05-01T01:17:29.725Z,18.16
2023-05-01T01:20:26.232Z,18.16
2023-05-01T01:23:12.369Z,17.92
2023-05-01T01:26:01.269Z,17.94
2023-05-01T01:28:40.899Z,17.72
2023-05-01T01:31:15.621Z,17.94
2023-05-01T01:34:07.725Z,17.44
2023-05-01T01:36:41.462Z,17.53
2023-05-01T01:39:12.986Z,17.77
2023-05-01T01:41:42.487Z,18.00
2023-05-01T01:44:14.506Z,18.12
2023-05-01T01:46:44.003Z,17.98
2023-05-01T01:49:20.260Z,18.36
2023-05-01T01:51:50.057Z,18.15
2023-05-01T01:54:21.086Z,18.37
2023-05-01T01:56:50.165Z,18.31
2023-05-01T01:59:20.121Z,18.06
2023-05-01T02:01:49.031Z,18.54
2023-05-01T02:04:19.407Z,18.50
2023-05-01T02:06:48.502Z,18.52
2023-05-01T02:09:18.049Z,18.20
2023-05-01T02:11:48.164Z,17.95
2023-05-01T02:14:17.482Z,18.17
2023-05-01T02:16:46.254Z,18.17
2023-05-01T02:19:15.939Z,18.20
2023-05-01T02:21:46.721Z,18.00
2023-05-01T02:24:15.347Z,18.02
2023-05-01T02:26:45.546Z,17.70
2023-05-01T02:29:13.826Z,17.60
2023-05-01T02:31:42.102Z,17.77
2023-05-01T02:34:10.513Z,17.46
2023-05-01T02:36:39.000Z,17.98
2023-05-01T02:39:08.610Z,17.63
2023-05-01T02:41:38.410Z,17.81
2023-05-01T02:44:08.741Z,17.88
2023-05-01T02:46:38.169Z,17.91
2023-05-01T02:49:07.035Z,17.97
2023-05-01T02:51:35.630Z,17.93
2023-05-01T02:54:04.294Z,17.95
2023-05-01T02:56:33.983Z,18.02
2023-05-01T02:59:02.194Z,17.57
2023-05-01T03:01:30.442Z,17.50
2023-05-01T03:03:58.863Z,17.54
2023-05-01T03:06:29.306Z,17.63
2023-05-01T03:08:57.647Z,17.59
2023-05-01T03:11:25.894Z,17.70
2023-05-01T03:13:55.494Z,17.21
2023-05-01T03:16:23.793Z,16.65
2023-05-01T03:18:52.064Z,16.91
2023-05-01T03:21:20.616Z,16.54
2023-05-01T03:23:49.144Z,16.85
2023-05-01T03:26:17.341Z,16.92
2023-05-01T03:28:45.811Z,16.46
2023-05-01T03:31:15.419Z,17.08
2023-05-01T03:33:43.702Z,16.66
2023-05-01T03:36:12.131Z,16.47
2023-05-01T03:38:40.387Z,17.61
2023-05-01T03:41:08.935Z,17.73
2023-05-01T03:43:37.302Z,17.16
2023-05-01T03:46:05.607Z,16.82
2023-05-01T03:48:35.331Z,17.68
2023-05-01T03:51:03.589Z,17.74
2023-05-01T03:53:32.592Z,17.07
2023-05-01T03:56:00.879Z,16.93
2023-05-01T03:58:29.184Z,17.27
2023-05-01T04:01:00.860Z,17.55
2023-05-01T04:03:29.632Z,17.62
2023-05-01T04:05:59.536Z,17.63
2023-05-01T04:08:27.937Z,17.70
2023-05-01T04:10:56.274Z,17.59
2023-05-01T04:13:24.564Z,17.50
2023-05-01T04:15:55.280Z,17.92
2023-05-01T04:18:23.611Z,17.95
2023-05-01T04:20:52.307Z,18.30
2023-05-01T04:23:23.188Z,18.34
2023-05-01T04:25:52.984Z,18.29
2023-05-01T04:28:21.490Z,18.24
2023-05-01T04:30:50.415Z,18.21
2023-05-01T04:33:18.730Z,18.36
2023-05-01T04:35:47.080Z,18.80
2023-05-01T04:38:15.356Z,19.42
2023-05-01T04:40:45.048Z,19.46
2023-05-01T04:43:13.273Z,19.95
2023-05-01T04:45:41.656Z,20.25
2023-05-01T04:48:09.921Z,20.40
2023-05-01T04:50:38.465Z,19.75
2023-05-01T04:53:06.763Z,20.38
2023-05-01T04:55:35.141Z,20.33
2023-05-01T04:58:04.949Z,20.33
2023-05-01T05:00:33.648Z,20.30
2023-05-01T05:03:01.995Z,20.21
2023-05-01T05:05:30.446Z,19.67
2023-05-01T05:07:59.223Z,19.76
2023-05-01T05:10:27.479Z,20.02
2023-05-01T05:12:55.774Z,20.31
2023-05-01T05:15:25.516Z,19.31
2023-05-01T05:17:56.363Z,19.42
2023-05-01T05:20:24.883Z,19.83
2023-05-01T05:22:53.117Z,20.82
2023-05-01T05:25:21.539Z,20.84
2023-05-01T05:27:49.815Z,20.53
2023-05-01T05:30:18.181Z,21.03
2023-05-01T05:32:48.858Z,21.01
2023-05-01T05:35:17.231Z,20.41
2023-05-01T05:37:46.207Z,20.69
2023-05-01T05:40:14.882Z,19.99
2023-05-01T05:42:43.119Z,20.75
2023-05-01T05:45:11.843Z,21.33
2023-05-01T05:47:40.918Z,21.37
2023-05-01T05:50:11.477Z,21.31
2023-05-01T05:52:39.732Z,20.76
2023-05-01T05:55:08.741Z,21.48
2023-05-01T05:57:37.816Z,21.80
2023-05-01T06:00:07.314Z,20.60
2023-05-01T06:02:35.613Z,20.31
2023-05-01T06:05:04.078Z,20.53
2023-05-01T06:07:33.707Z,20.90
2023-05-01T06:10:05.303Z,20.59
2023-05-01T06:12:35.736Z,21.52
2023-05-01T06:15:06.701Z,20.99
2023-05-01T06:17:36.113Z,21.30
2023-05-01T06:20:06.377Z,21.00
2023-05-01T06:22:35.982Z,20.29
2023-05-01T06:25:04.296Z,22.01
2023-05-01T06:27:32.497Z,21.20
2023-05-01T06:30:00.760Z,20.44
2023-05-01T06:32:29.049Z,20.30
2023-05-01T06:34:57.462Z,20.04
2023-05-01T06:37:25.804Z,19.43
2023-05-01T06:39:56.000Z,20.22
2023-05-01T06:42:24.516Z,19.97
2023-05-01T06:44:52.768Z,21.47
2023-05-01T06:47:21.870Z,20.19
2023-05-01T06:49:50.288Z,21.16
2023-05-01T06:52:18.570Z,21.03
2023-05-01T06:54:46.935Z,21.82
2023-05-01T06:57:16.669Z,21.30
2023-05-01T06:59:45.253Z,21.50
2023-05-01T07:02:13.585Z,23.32
2023-05-01T07:04:41.918Z,23.28
2023-05-01T07:07:10.163Z,22.27
2023-05-01T07:09:38.809Z,21.87
2023-05-01T07:12:07.250Z,23.02
2023-05-01T07:14:37.189Z,22.07
2023-05-01T07:17:05.880Z,22.80
2023-05-01T07:19:34.144Z,24.43
2023-05-01T07:22:03.258Z,22.37
2023-05-01T07:24:31.508Z,23.77
2023-05-01T07:26:59.981Z,24.65
2023-05-01T07:29:28.228Z,24.04
2023-05-01T07:31:58.425Z,23.82
2023-05-01T07:34:26.740Z,24.21
2023-05-01T07:36:55.215Z,23.11
2023-05-01T07:39:23.460Z,24.55
2023-05-01T07:41:51.720Z,24.41
2023-05-01T07:44:19.977Z,25.12
2023-05-01T07:46:48.213Z,26.05
2023-05-01T07:49:17.815Z,25.21
2023-05-01T07:51:46.105Z,24.22
2023-05-01T07:54:16.163Z,24.18
2023-05-01T07:56:44.452Z,25.22
2023-05-01T07:59:12.703Z,26.09
2023-05-01T08:01:41.294Z,25.44
2023-05-01T08:04:09.618Z,24.56
2023-05-01T08:06:39.761Z,25.64
2023-05-01T08:09:11.065Z,25.38
2023-05-01T08:11:39.573Z,26.58
2023-05-01T08:14:08.343Z,26.52
2023-05-01T08:16:36.962Z,26.15
2023-05-01T08:19:05.729Z,24.78
2023-05-01T08:21:34.021Z,24.89
2023-05-01T08:24:03.859Z,24.55
2023-05-01T08:26:32.176Z,24.20
2023-05-01T08:29:00.473Z,25.01
2023-05-01T08:31:28.809Z,25.71
2023-05-01T08:33:57.229Z,25.86
2023-05-01T08:36:25.440Z,25.66
2023-05-01T08:38:54.128Z,25.51
2023-05-01T08:41:23.889Z,26.04
2023-05-01T08:43:52.193Z,25.51
2023-05-01T08:46:27.821Z,26.49
2023-05-01T08:48:58.634Z,26.99
2023-05-01T08:51:27.197Z,25.37
2023-05-01T08:53:56.753Z,24.06
2023-05-01T08:56:26.598Z,24.89
2023-05-01T08:58:55.318Z,25.08
2023-05-01T09:01:23.642Z,24.13
2023-05-01T09:03:52.369Z,23.59
2023-05-01T09:06:21.575Z,24.01
2023-05-01T09:08:49.882Z,24.39
2023-05-01T09:11:18.233Z,24.73
2023-05-01T09:13:48.220Z,24.72
2023-05-01T09:16:16.620Z,24.51
2023-05-01T09:18:45.017Z,24.87
2023-05-01T09:21:13.373Z,25.61
2023-05-01T09:23:41.677Z,23.58
2023-05-01T09:26:09.895Z,24.27
2023-05-01T09:28:42.709Z,24.85
2023-05-01T09:31:26.533Z,25.02
2023-05-01T09:33:55.836Z,25.49
2023-05-01T09:36:25.003Z,24.51
2023-05-01T09:38:53.428Z,23.64
2023-05-01T09:41:24.588Z,24.63
2023-05-01T09:43:53.829Z,24.98
2023-05-01T09:46:24.659Z,24.39
2023-05-01T09:48:57.109Z,24.38
2023-05-01T09:51:27.836Z,24.43
2023-05-01T09:53:57.296Z,23.33
2023-05-01T09:56:27.176Z,23.88
2023-05-01T09:58:56.585Z,24.40
2023-05-01T10:01:44.335Z,23.72
2023-05-01T10:04:13.227Z,23.03
2023-05-01T10:06:42.296Z,23.08
2023-05-01T10:09:16.681Z,22.73
2023-05-01T10:11:52.205Z,22.74
2023-05-01T10:14:21.281Z,22.54
2023-05-01T10:16:52.905Z,22.74
2023-05-01T10:19:22.243Z,23.09
2023-05-01T10:21:50.702Z,22.74
2023-05-01T10:24:19.039Z,21.12
2023-05-01T10:26:49.680Z,21.44
2023-05-01T10:29:18.010Z,21.56
2023-05-01T10:34:19.461Z,20.85
2023-05-01T10:36:54.877Z,21.19
2023-05-01T10:39:41.020Z,20.91
2023-05-01T10:42:14.351Z,20.36
2023-05-01T10:44:43.658Z,20.81
2023-05-01T10:47:45.190Z,20.06
2023-05-01T10:50:16.163Z,20.44
2023-05-01T10:53:18.863Z,20.05
2023-05-01T10:55:49.206Z,19.53
2023-05-01T10:58:51.876Z,20.40
2023-05-01T11:01:31.198Z,20.34
2023-05-01T11:04:00.188Z,20.18
2023-05-01T11:06:30.100Z,19.82
2023-05-01T11:08:58.568Z,20.26
2023-05-01T11:11:51.654Z,20.39
2023-05-01T11:14:19.974Z,20.53
2023-05-01T11:16:49.412Z,20.42
2023-05-01T11:19:47.629Z,20.04
2023-05-01T11:22:17.881Z,20.34
2023-05-01T11:24:46.236Z,20.25
2023-05-01T11:27:15.869Z,19.82
2023-05-01T11:29:46.678Z,20.01
2023-05-01T11:32:19.198Z,19.88
2023-05-01T11:34:48.124Z,20.04
2023-05-01T11:37:17.781Z,20.67
2023-05-01T11:39:50.498Z,20.04
2023-05-01T11:42:22.389Z,20.03
2023-05-01T11:45:11.900Z,19.35
2023-05-01T11:47:40.598Z,19.89
2023-05-01T11:50:11.012Z,20.59
2023-05-01T11:52:49.408Z,20.17
2023-05-01T11:55:17.817Z,21.16
2023-05-01T11:57:47.308Z,20.23
2023-05-01T12:00:17.145Z,20.32
2023-05-01T12:02:58.358Z,20.10
2023-05-01T12:05:27.624Z,19.10
2023-05-01T12:08:12.627Z,18.85
2023-05-01T12:10:43.117Z,19.39
2023-05-01T12:13:11.673Z,19.54
2023-05-01T12:15:42.588Z,20.22
2023-05-01T12:18:11.032Z,20.80
2023-05-01T12:20:40.397Z,20.27
2023-05-01T12:23:12.182Z,20.24
2023-05-01T12:25:41.447Z,19.84
2023-05-01T12:28:11.556Z,20.46
2023-05-01T12:30:41.423Z,20.78
2023-05-01T12:33:11.607Z,20.02
2023-05-01T12:35:40.685Z,20.76
2023-05-01T12:38:14.363Z,20.79
2023-05-01T12:40:52.645Z,20.63
2023-05-01T12:43:21.606Z,20.57
2023-05-01T12:45:53.631Z,19.69
2023-05-01T12:48:22.211Z,20.56
2023-05-01T12:50:54.764Z,21.24
2023-05-01T12:53:25.414Z,21.89
2023-05-01T12:55:55.285Z,21.38
2023-05-01T12:58:23.960Z,22.33
2023-05-01T13:00:53.558Z,22.20
2023-05-01T13:03:25.072Z,22.89
2023-05-01T13:05:55.157Z,22.49
2023-05-01T13:08:29.275Z,22.19
2023-05-01T13:10:58.401Z,22.90
2023-05-01T13:13:31.727Z,23.60
2023-05-01T13:16:08.855Z,23.27
2023-05-01T13:18:44.652Z,23.00
2023-05-01T13:21:15.717Z,23.80
2023-05-01T13:23:53.563Z,23.31
2023-05-01T13:26:26.958Z,24.62
2023-05-01T13:28:55.461Z,24.70
2023-05-01T13:31:24.024Z,23.19
2023-05-01T13:33:53.556Z,24.55
2023-05-01T13:36:26.956Z,23.81
2023-05-01T13:38:57.657Z,24.90
2023-05-01T13:41:27.937Z,24.07
2023-05-01T13:43:57.580Z,25.07
2023-05-01T13:46:27.393Z,23.75
2023-05-01T13:48:56.323Z,23.65
2023-05-01T13:51:26.429Z,24.67
2023-05-01T13:53:57.425Z,24.78
2023-05-01T13:56:26.143Z,24.96
2023-05-01T13:58:54.476Z,24.14
2023-05-01T14:01:23.988Z,24.22
2023-05-01T14:03:52.609Z,23.88
2023-05-01T14:06:22.114Z,25.03
2023-05-01T14:08:52.573Z,24.45
2023-05-01T14:11:22.018Z,24.63
2023-05-01T14:13:51.611Z,25.38
2023-05-01T14:16:24.406Z,24.53
2023-05-01T14:18:56.796Z,24.33
2023-05-01T14:21:27.363Z,25.77
2023-05-01T14:23:56.699Z,24.53
2023-05-01T14:26:26.754Z,24.61
2023-05-01T14:28:55.650Z,24.91
2023-05-01T14:31:28.482Z,24.39
2023-05-01T14:33:59.858Z,25.12
2023-05-01T14:36:31.093Z,24.96
2023-05-01T14:39:00.086Z,24.00
2023-05-01T14:41:30.431Z,24.34
2023-05-01T14:43:58.748Z,24.62
2023-05-01T14:46:30.841Z,24.63
2023-05-01T14:48:59.784Z,23.78
2023-05-01T14:51:28.665Z,23.06
2023-05-01T14:53:56.978Z,23.74
2023-05-01T14:56:25.591Z,24.16
2023-05-01T14:58:55.248Z,24.17
2023-05-01T15:01:23.616Z,23.32
2023-05-01T15:03:53.206Z,23.85
2023-05-01T15:06:21.648Z,23.35
2023-05-01T15:08:49.937Z,24.55
2023-05-01T15:11:18.725Z,25.13
2023-05-01T15:13:47.235Z,25.38
2023-05-01T15:16:17.075Z,24.91
2023-05-01T15:18:45.456Z,24.91
2023-05-01T15:21:13.665Z,25.38
2023-05-01T15:23:45.150Z,25.05
2023-05-01T15:26:13.899Z,25.06
2023-05-01T15:28:42.158Z,24.76
2023-05-01T15:31:10.382Z,25.06
2023-05-01T15:33:40.144Z,24.14
2023-05-01T15:36:08.722Z,24.20
2023-05-01T15:38:36.943Z,24.36
2023-05-01T15:41:05.528Z,24.53
2023-05-01T15:43:33.766Z,24.88
2023-05-01T15:46:02.003Z,23.85
2023-05-01T15:48:30.281Z,22.70
2023-05-01T15:50:59.933Z,23.61
2023-05-01T15:53:28.314Z,23.58
2023-05-01T15:55:58.475Z,23.34
2023-05-01T15:58:26.725Z,23.57
2023-05-01T16:00:55.025Z,23.13
2023-05-01T16:03:23.459Z,23.52
2023-05-01T16:05:52.273Z,23.24
2023-05-01T16:08:21.853Z,23.17
2023-05-01T16:10:50.223Z,22.65
2023-05-01T16:13:18.489Z,23.52
2023-05-01T16:15:47.022Z,23.82
2023-05-01T16:18:20.116Z,24.16
2023-05-01T16:20:48.416Z,23.79
2023-05-01T16:23:16.686Z,24.59
2023-05-01T16:25:46.319Z,24.90
2023-05-01T16:28:15.671Z,25.00
2023-05-01T16:30:44.141Z,24.94
2023-05-01T16:33:18.864Z,23.86
2023-05-01T16:35:48.613Z,24.76
2023-05-01T16:38:17.088Z,24.24
2023-05-01T16:40:48.076Z,24.51
2023-05-01T16:43:16.910Z,24.36
2023-05-01T16:45:46.698Z,24.54
2023-05-01T16:48:24.856Z,25.21
2023-05-01T16:50:53.146Z,25.31
2023-05-01T16:53:21.437Z,25.48
2023-05-01T16:55:51.025Z,24.69
2023-05-01T16:58:19.299Z,24.52
2023-05-01T17:00:47.499Z,24.89
2023-05-01T17:03:16.160Z,24.24
2023-05-01T17:05:44.474Z,25.20
2023-05-01T17:08:12.805Z,24.38
2023-05-01T17:10:41.079Z,24.20
2023-05-01T17:13:10.965Z,24.62
2023-05-01T17:15:39.208Z,24.26
2023-05-01T17:18:07.537Z,24.57
2023-05-01T17:20:35.881Z,23.95
2023-05-01T17:23:04.357Z,24.75
2023-05-01T17:25:32.628Z,24.82
2023-05-01T17:28:00.865Z,24.33
2023-05-01T17:30:30.486Z,23.93
2023-05-01T17:32:58.873Z,23.38
2023-05-01T17:35:27.362Z,22.91
2023-05-01T17:37:56.299Z,22.65
2023-05-01T17:40:24.618Z,22.28
2023-05-01T17:42:52.908Z,22.93
2023-05-01T17:45:21.286Z,21.98
2023-05-01T17:47:52.809Z,22.13
2023-05-01T17:50:21.424Z,21.78
2023-05-01T17:52:49.757Z,21.78
2023-05-01T17:55:18.602Z,21.62
2023-05-01T17:57:47.489Z,21.80
2023-05-01T18:00:16.567Z,21.83
2023-05-01T18:02:46.479Z,22.13
2023-05-01T18:05:16.422Z,22.00
2023-05-01T18:07:44.725Z,22.11
2023-05-01T18:10:13.179Z,21.38
2023-05-01T18:12:41.455Z,22.63
2023-05-01T18:15:10.681Z,22.57
2023-05-01T18:17:39.000Z,22.36
2023-05-01T18:20:08.594Z,22.65
2023-05-01T18:22:38.169Z,21.84
2023-05-01T18:25:07.459Z,22.02
2023-05-01T18:27:37.443Z,21.89
2023-05-01T18:30:06.362Z,21.94
2023-05-01T18:32:46.967Z,22.09
2023-05-01T18:35:17.062Z,22.01
2023-05-01T18:37:47.066Z,22.11
2023-05-01T18:40:15.395Z,22.61
2023-05-01T18:42:43.904Z,21.85
2023-05-01T18:45:12.260Z,22.32
2023-05-01T18:47:40.745Z,22.15
2023-05-01T18:50:11.296Z,21.91
2023-05-01T18:52:39.656Z,22.21
2023-05-01T18:55:11.358Z,21.82
2023-05-01T18:57:41.771Z,22.23
2023-05-01T19:00:11.101Z,21.70
2023-05-01T19:02:39.437Z,22.23
2023-05-01T19:05:08.829Z,22.08
2023-05-01T19:07:37.435Z,21.96
2023-05-01T19:10:06.321Z,22.23
2023-05-01T19:12:35.967Z,21.41
2023-05-01T19:15:04.356Z,21.71
2023-05-01T19:17:33.918Z,21.59
2023-05-01T19:20:04.652Z,21.49
2023-05-01T19:22:32.977Z,21.16
2023-05-01T19:25:01.232Z,20.52
2023-05-01T19:27:29.547Z,20.93
2023-05-01T19:30:01.204Z,21.32
2023-05-01T19:32:29.920Z,20.79
2023-05-01T19:34:58.232Z,20.63
2023-05-01T19:37:27.593Z,20.84
2023-05-01T19:39:56.196Z,20.59
2023-05-01T19:42:24.807Z,20.51
2023-05-01T19:44:53.078Z,20.66
2023-05-01T19:47:22.804Z,21.57
2023-05-01T19:49:51.105Z,21.51
2023-05-01T19:52:19.590Z,21.20
2023-05-01T19:54:47.892Z,21.49
2023-05-01T19:57:16.495Z,21.44
2023-05-01T19:59:44.970Z,20.62
2023-05-01T20:02:13.279Z,21.33
2023-05-01T20:04:42.974Z,20.77
2023-05-01T20:07:11.331Z,21.03
2023-05-01T20:09:39.645Z,20.59
2023-05-01T20:12:07.945Z,20.33
2023-05-01T20:14:36.282Z,20.79
2023-05-01T20:17:06.263Z,21.63
2023-05-01T20:19:34.676Z,21.53
2023-05-01T20:22:04.319Z,21.20
2023-05-01T20:24:32.600Z,20.97
2023-05-01T20:27:01.113Z,20.58
2023-05-01T20:29:29.323Z,20.81
2023-05-01T20:31:57.640Z,21.26
2023-05-01T20:34:26.183Z,20.80
2023-05-01T20:36:54.523Z,21.02
2023-05-01T20:39:24.247Z,20.92
2023-05-01T20:41:52.710Z,20.90
2023-05-01T20:44:20.927Z,20.14
2023-05-01T20:46:49.241Z,20.24
2023-05-01T20:49:17.520Z,20.36
2023-05-01T20:51:45.713Z,20.34
2023-05-01T20:54:14.007Z,20.13
2023-05-01T20:56:43.668Z,19.88
2023-05-01T20:59:12.031Z,20.06
2023-05-01T21:01:40.371Z,19.50
2023-05-01T21:04:08.767Z,19.64
2023-05-01T21:06:37.152Z,19.12
2023-05-01T21:09:06.248Z,19.32
2023-05-01T21:11:34.507Z,19.46
2023-05-01T21:14:04.109Z,19.25
2023-05-01T21:16:32.646Z,20.08
2023-05-01T21:19:01.008Z,19.52
2023-05-01T21:21:29.281Z,19.39
2023-05-01T21:23:57.560Z,19.38
2023-05-01T21:26:26.074Z,19.21
2023-05-01T21:28:54.277Z,19.40
2023-05-01T21:31:27.261Z,19.05
2023-05-01T21:33:58.117Z,19.86
2023-05-01T21:36:26.403Z,19.79
2023-05-01T21:38:54.978Z,20.14
2023-05-01T21:41:23.390Z,19.57
2023-05-01T21:43:51.664Z,19.93
2023-05-01T21:46:20.543Z,20.02
2023-05-01T21:48:52.488Z,20.03
2023-05-01T21:51:26.933Z,20.06
2023-05-01T21:53:55.399Z,20.09
2023-05-01T21:56:23.746Z,20.01
2023-05-01T21:58:52.256Z,20.12
2023-05-01T22:01:23.503Z,19.68
2023-05-01T22:03:53.261Z,19.84
2023-05-01T22:06:24.232Z,20.00
2023-05-01T22:08:53.008Z,19.12
2023-05-01T22:11:24.472Z,19.26
2023-05-01T22:13:52.810Z,19.64
2023-05-01T22:16:21.066Z,19.57
2023-05-01T22:18:53.810Z,19.86
2023-05-01T22:21:23.947Z,19.46
2023-05-01T22:23:52.250Z,19.18
2023-05-01T22:26:20.490Z,19.04
2023-05-01T22:28:49.785Z,19.47
2023-05-01T22:31:18.169Z,19.66
2023-05-01T22:33:46.467Z,19.49
2023-05-01T22:36:14.906Z,19.22
2023-05-01T22:38:44.542Z,18.97
2023-05-01T22:41:12.856Z,19.63
2023-05-01T22:43:41.150Z,19.36
2023-05-01T22:46:09.404Z,19.50
2023-05-01T22:48:37.717Z,19.38
2023-05-01T22:51:06.638Z,20.01
2023-05-01T22:53:34.995Z,20.25
2023-05-01T22:56:04.975Z,20.37
2023-05-01T22:58:33.328Z,20.17
2023-05-01T23:01:01.805Z,19.97
2023-05-01T23:03:31.418Z,20.43
2023-05-01T23:05:59.701Z,20.67
2023-05-01T23:08:28.313Z,20.34
2023-05-01T23:10:56.671Z,20.78
2023-05-01T23:13:27.363Z,20.53
2023-05-01T23:15:55.728Z,20.32
2023-05-01T23:18:25.620Z,20.95
2023-05-01T23:20:55.567Z,21.03
2023-05-01T23:23:24.079Z,20.90
2023-05-01T23:25:52.894Z,20.50
2023-05-01T23:28:22.118Z,20.70
2023-05-01T23:30:56.512Z,20.44
2023-05-01T23:33:26.453Z,21.00
2023-05-01T23:35:54.726Z,20.61
2023-05-01T23:38:23.278Z,20.55
2023-05-01T23:40:51.684Z,20.68
2023-05-01T23:43:20.032Z,19.65
2023-05-01T23:45:48.284Z,19.98
2023-05-01T23:48:17.860Z,19.45
2023-05-01T23:50:46.358Z,19.92
2023-05-01T23:53:14.573Z,20.35
2023-05-01T23:55:45.265Z,20.57
2023-05-01T23:58:14.853Z,19.78
